createdAt,value
2018-03-15T00:00:37.427Z,75.08
2018-03-15T00:03:11.554Z,75.01
2018-03-15T00:05:40.719Z,75.09
2018-03-15T00:08:09.540Z,75.05
2018-03-15T00:10:38.717Z,75.06
2018-03-15T00:13:07.852Z,75.08
2018-03-15T00:15:38.508Z,75.17
2018-03-15T00:18:09.061Z,75.10
2018-03-15T00:20:39.430Z,75.01
2018-03-15T00:23:10.041Z,75.03
2018-03-15T00:25:40.827Z,75.35
2018-03-15T00:28:11.772Z,75.59
2018-03-15T00:30:43.108Z,75.48
2018-03-15T00:33:13.732Z,75.42
2018-03-15T00:35:45.401Z,75.43
2018-03-15T00:38:15.973Z,75.38
2018-03-15T00:40:46.358Z,75.38
2018-03-15T00:43:16.993Z,75.39
2018-03-15T00:45:47.821Z,75.39
2018-03-15T00:48:19.368Z,75.41
2018-03-15T00:50:50.033Z,75.47
2018-03-15T00:53:20.698Z,75.45
2018-03-15T00:55:52.028Z,75.47
2018-03-15T00:58:22.724Z,75.53
2018-03-15T01:00:54.432Z,75.49
2018-03-15T01:03:25.048Z,75.39
2018-03-15T01:05:55.382Z,75.40
2018-03-15T01:08:26.343Z,75.46
2018-03-15T01:10:57.012Z,75.41
2018-03-15T01:13:27.340Z,75.56
2018-03-15T01:15:58.005Z,75.69
2018-03-15T01:18:28.761Z,75.76
2018-03-15T01:21:00.158Z,75.72
2018-03-15T01:23:30.726Z,75.66
2018-03-15T01:26:02.095Z,75.56
2018-03-15T01:28:32.665Z,75.50
2018-03-15T01:31:04.109Z,75.50
2018-03-15T01:33:34.668Z,75.47
2018-03-15T01:36:06.071Z,75.45
2018-03-15T01:38:36.948Z,75.54
2018-03-15T01:41:07.747Z,75.58
2018-03-15T01:43:39.031Z,75.70
2018-03-15T01:46:09.715Z,75.82
2018-03-15T01:48:40.970Z,75.96
2018-03-15T01:51:11.733Z,75.85
2018-03-15T01:53:43.714Z,75.91
2018-03-15T01:56:14.485Z,75.77
2018-03-15T01:58:45.008Z,75.73
2018-03-15T02:01:15.866Z,75.73
2018-03-15T02:03:46.730Z,75.76
2018-03-15T02:06:18.224Z,75.89
2018-03-15T02:08:48.838Z,76.12
2018-03-15T02:11:20.236Z,76.16
2018-03-15T02:13:50.841Z,76.19
2018-03-15T02:16:21.838Z,76.31
2018-03-15T02:18:52.300Z,76.33
2018-03-15T02:21:22.951Z,76.43
2018-03-15T02:23:53.752Z,76.50
2018-03-15T02:26:25.201Z,76.49
2018-03-15T02:28:55.802Z,76.48
2018-03-15T02:31:26.460Z,76.47
2018-03-15T02:33:57.108Z,76.49
2018-03-15T02:36:27.837Z,76.52
2018-03-15T02:38:58.448Z,76.48
2018-03-15T02:41:29.139Z,76.59
2018-03-15T02:43:59.878Z,76.64
2018-03-15T02:46:30.914Z,76.56
2018-03-15T02:49:01.712Z,76.63
2018-03-15T02:51:33.109Z,76.66
2018-03-15T02:54:03.718Z,76.71
2018-03-15T02:56:35.174Z,76.72
2018-03-15T02:59:05.812Z,76.90
2018-03-15T03:01:36.369Z,76.84
2018-03-15T03:04:06.954Z,76.94
2018-03-15T03:06:37.799Z,76.88
2018-03-15T03:09:08.733Z,76.99
2018-03-15T03:11:40.092Z,76.93
2018-03-15T03:14:10.302Z,76.99
2018-03-15T03:16:41.075Z,77.05
2018-03-15T03:19:11.740Z,77.12
2018-03-15T03:21:43.221Z,77.24
2018-03-15T03:24:13.753Z,77.26
2018-03-15T03:26:44.310Z,77.22
2018-03-15T03:29:14.862Z,77.21
2018-03-15T03:31:45.522Z,77.27
2018-03-15T03:34:16.081Z,77.21
2018-03-15T03:36:46.865Z,77.22
2018-03-15T03:39:17.779Z,77.19
2018-03-15T03:41:48.389Z,77.26
2018-03-15T03:44:19.159Z,77.24
2018-03-15T03:46:50.519Z,77.29
2018-03-15T03:49:21.171Z,77.28
2018-03-15T03:51:51.839Z,77.24
2018-03-15T03:54:22.362Z,77.33
2018-03-15T03:56:53.024Z,77.43
2018-03-15T03:59:23.763Z,77.46
2018-03-15T04:01:55.138Z,77.37
2018-03-15T04:04:25.782Z,77.30
2018-03-15T04:06:57.114Z,77.23
2018-03-15T04:09:27.773Z,77.25
2018-03-15T04:11:57.743Z,77.35
2018-03-15T04:14:28.368Z,77.38
2018-03-15T04:16:59.312Z,77.44
2018-03-15T04:19:30.151Z,77.51
2018-03-15T04:22:01.074Z,77.45
2018-03-15T04:24:32.303Z,77.38
2018-03-15T04:27:03.228Z,77.50
2018-03-15T04:29:34.202Z,77.55
2018-03-15T04:32:05.702Z,77.61
2018-03-15T04:34:36.290Z,77.98
2018-03-15T04:37:07.133Z,77.95
2018-03-15T04:39:38.038Z,77.90
2018-03-15T04:42:09.389Z,77.66
2018-03-15T04:44:40.370Z,77.50
2018-03-15T04:47:11.412Z,77.48
2018-03-15T04:49:42.449Z,77.51
2018-03-15T04:52:13.369Z,77.58
2018-03-15T04:54:44.259Z,77.45
2018-03-15T04:57:15.232Z,77.40
2018-03-15T04:59:46.100Z,77.51
2018-03-15T05:02:17.789Z,77.58
2018-03-15T05:04:48.726Z,78.09
2018-03-15T05:07:20.115Z,78.03
2018-03-15T05:09:50.946Z,78.04
2018-03-15T05:12:22.256Z,77.92
2018-03-15T05:14:52.888Z,77.81
2018-03-15T05:17:23.752Z,77.97
2018-03-15T05:19:55.024Z,78.00
2018-03-15T05:22:25.807Z,78.26
2018-03-15T05:24:56.750Z,78.25
2018-03-15T05:27:28.210Z,78.31
2018-03-15T05:29:58.805Z,78.33
2018-03-15T05:32:37.643Z,77.78
2018-03-15T05:35:07.067Z,78.27
2018-03-15T05:37:36.320Z,78.29
2018-03-15T05:40:05.514Z,78.37
2018-03-15T05:42:34.610Z,78.27
2018-03-15T05:45:04.471Z,78.23
2018-03-15T05:47:34.367Z,78.07
2018-03-15T05:50:04.724Z,77.88
2018-03-15T05:52:36.041Z,78.12
2018-03-15T05:55:06.801Z,78.03
2018-03-15T05:57:37.762Z,78.20
2018-03-15T06:00:08.776Z,78.25
2018-03-15T06:02:40.181Z,78.50
2018-03-15T06:05:10.870Z,78.86
2018-03-15T06:07:41.717Z,78.49
2018-03-15T06:10:13.189Z,78.52
2018-03-15T06:12:43.744Z,78.54
2018-03-15T06:15:14.767Z,78.79
2018-03-15T06:17:45.693Z,78.94
2018-03-15T06:20:16.736Z,78.88
2018-03-15T06:22:47.337Z,79.20
2018-03-15T06:25:18.048Z,78.57
2018-03-15T06:27:48.784Z,78.95
2018-03-15T06:30:19.776Z,78.67
2018-03-15T06:32:51.004Z,78.07
2018-03-15T06:35:21.752Z,78.73
2018-03-15T06:37:52.230Z,79.23
2018-03-15T06:40:22.884Z,78.74
2018-03-15T06:42:53.798Z,77.98
2018-03-15T06:45:24.704Z,77.76
2018-03-15T06:47:55.313Z,78.04
2018-03-15T06:50:25.894Z,78.60
2018-03-15T06:52:56.786Z,78.08
2018-03-15T06:55:27.688Z,78.90
2018-03-15T06:57:59.189Z,78.50
2018-03-15T07:00:29.714Z,79.74
2018-03-15T07:03:00.336Z,78.57
2018-03-15T07:05:30.908Z,79.44
2018-03-15T07:08:01.749Z,79.51
2018-03-15T07:10:33.068Z,79.10
2018-03-15T07:13:03.882Z,79.41
2018-03-15T07:15:34.730Z,79.33
2018-03-15T07:18:05.728Z,79.67
2018-03-15T07:20:36.654Z,79.07
2018-03-15T07:23:07.293Z,79.21
2018-03-15T07:25:37.845Z,80.06
2018-03-15T07:28:08.874Z,80.19
2018-03-15T07:30:39.790Z,80.38
2018-03-15T07:33:10.764Z,79.94
2018-03-15T07:35:41.260Z,79.94
2018-03-15T07:38:12.007Z,80.21
2018-03-15T07:40:42.717Z,79.79
2018-03-15T07:43:14.125Z,79.96
2018-03-15T07:45:44.768Z,80.01
2018-03-15T07:48:15.777Z,79.65
2018-03-15T07:50:46.309Z,80.13
2018-03-15T07:53:16.946Z,80.19
2018-03-15T07:55:46.685Z,79.98
2018-03-15T07:58:17.800Z,79.60
2018-03-15T08:00:48.672Z,79.58
2018-03-15T08:03:20.110Z,79.42
2018-03-15T08:05:50.672Z,79.47
2018-03-15T08:08:22.055Z,79.46
2018-03-15T08:10:52.392Z,79.54
2018-03-15T08:13:22.986Z,79.33
2018-03-15T08:15:54.222Z,79.24
2018-03-15T08:18:24.845Z,79.32
2018-03-15T08:20:55.333Z,78.98
2018-03-15T08:23:27.089Z,79.04
2018-03-15T08:25:57.700Z,79.27
2018-03-15T08:28:29.055Z,78.79
2018-03-15T08:30:59.664Z,79.17
2018-03-15T08:33:31.252Z,78.84
2018-03-15T08:36:02.085Z,79.30
2018-03-15T08:38:33.058Z,79.22
2018-03-15T08:41:03.788Z,79.32
2018-03-15T08:43:35.295Z,79.37
2018-03-15T08:46:05.853Z,78.96
2018-03-15T08:48:36.748Z,78.55
2018-03-15T08:51:08.024Z,78.95
2018-03-15T08:53:38.732Z,78.69
2018-03-15T08:56:09.667Z,78.62
2018-03-15T08:58:41.102Z,78.71
2018-03-15T09:01:11.352Z,78.38
2018-03-15T09:03:42.000Z,78.48
2018-03-15T09:06:12.822Z,78.62
2018-03-15T09:08:43.879Z,78.32
2018-03-15T09:11:14.764Z,78.39
2018-03-15T09:13:46.097Z,78.52
2018-03-15T09:16:16.309Z,78.43
2018-03-15T09:18:46.912Z,78.20
2018-03-15T09:21:17.705Z,78.26
2018-03-15T09:23:49.117Z,78.11
2018-03-15T09:26:20.211Z,77.82
2018-03-15T09:28:50.912Z,77.97
2018-03-15T09:31:21.437Z,78.11
2018-03-15T09:33:52.125Z,78.48
2018-03-15T09:36:22.888Z,78.37
2018-03-15T09:38:53.862Z,78.09
2018-03-15T09:41:24.655Z,77.77
2018-03-15T09:43:55.252Z,77.87
2018-03-15T09:46:25.826Z,78.12
2018-03-15T09:48:56.884Z,77.92
2018-03-15T09:51:27.716Z,77.30
2018-03-15T09:53:59.200Z,77.03
2018-03-15T09:56:30.076Z,77.21
2018-03-15T09:59:00.380Z,77.06
2018-03-15T10:01:30.925Z,76.69
2018-03-15T10:04:01.420Z,76.47
2018-03-15T10:06:32.013Z,76.59
2018-03-15T10:09:02.922Z,76.59
2018-03-15T10:11:34.637Z,76.78
2018-03-15T10:14:05.232Z,76.55
2018-03-15T10:16:35.812Z,75.41
2018-03-15T10:19:07.560Z,75.89
2018-03-15T10:21:38.068Z,75.50
2018-03-15T10:24:08.788Z,75.87
2018-03-15T10:26:39.764Z,76.25
2018-03-15T10:29:11.406Z,76.89
2018-03-15T10:31:41.836Z,76.69
2018-03-15T10:34:12.351Z,76.66
2018-03-15T10:36:43.080Z,76.57
2018-03-15T10:39:13.260Z,77.24
2018-03-15T10:41:43.842Z,77.36
2018-03-15T10:44:14.756Z,77.36
2018-03-15T10:46:46.061Z,77.18
2018-03-15T10:49:16.853Z,77.49
2018-03-15T10:51:47.431Z,76.92
2018-03-15T10:54:18.125Z,76.76
2018-03-15T10:56:48.886Z,76.69
2018-03-15T10:59:19.784Z,76.54
2018-03-15T11:01:50.549Z,76.49
2018-03-15T11:07:30.544Z,75.23
2018-03-15T11:09:59.672Z,75.15
2018-03-15T11:12:28.387Z,74.67
2018-03-15T11:14:57.350Z,74.22
2018-03-15T11:17:26.367Z,74.25
2018-03-15T11:19:55.396Z,73.54
2018-03-15T11:22:24.288Z,73.30
2018-03-15T11:24:53.403Z,73.19
2018-03-15T11:27:22.313Z,73.54
2018-03-15T11:29:51.321Z,73.23
2018-03-15T11:32:20.508Z,73.00
2018-03-15T11:34:49.552Z,73.11
2018-03-15T11:37:18.550Z,72.58
2018-03-15T11:39:47.610Z,72.66
2018-03-15T11:42:20.745Z,72.02
2018-03-15T11:44:49.933Z,71.32
2018-03-15T11:47:18.817Z,71.20
2018-03-15T11:49:48.210Z,70.35
2018-03-15T11:52:17.453Z,69.58
2018-03-15T11:54:47.089Z,69.51
2018-03-15T11:57:16.212Z,69.84
2018-03-15T11:59:45.977Z,69.58
2018-03-15T12:02:15.144Z,68.90
2018-03-15T12:04:44.469Z,68.52
2018-03-15T12:07:14.368Z,68.72
2018-03-15T12:09:44.949Z,68.70
2018-03-15T12:12:15.803Z,68.24
2018-03-15T12:14:46.756Z,68.47
2018-03-15T12:17:17.788Z,68.11
2018-03-15T12:19:48.769Z,67.84
2018-03-15T12:22:20.119Z,67.41
2018-03-15T12:24:50.723Z,67.52
2018-03-15T12:27:21.749Z,67.87
2018-03-15T12:29:53.088Z,68.88
2018-03-15T12:32:23.901Z,68.62
2018-03-15T12:34:54.749Z,68.29
2018-03-15T12:37:25.236Z,68.64
2018-03-15T12:39:55.730Z,69.17
2018-03-15T12:42:27.124Z,69.97
2018-03-15T12:44:57.747Z,69.91
2018-03-15T12:47:29.114Z,69.86
2018-03-15T12:49:59.395Z,69.35
2018-03-15T12:52:30.074Z,69.21
2018-03-15T12:55:00.709Z,68.93
2018-03-15T12:57:31.368Z,68.89
2018-03-15T13:00:01.919Z,68.52
2018-03-15T13:02:32.341Z,68.39
2018-03-15T13:05:02.898Z,68.40
2018-03-15T13:07:33.745Z,67.63
2018-03-15T13:10:04.796Z,66.83
2018-03-15T13:12:35.740Z,66.74
2018-03-15T13:15:06.735Z,66.53
2018-03-15T13:17:37.370Z,66.27
2018-03-15T13:20:07.993Z,66.51
2018-03-15T13:22:38.821Z,66.09
2018-03-15T13:25:09.661Z,65.96
2018-03-15T13:27:41.116Z,66.33
2018-03-15T13:30:11.367Z,66.47
2018-03-15T13:32:42.048Z,66.22
2018-03-15T13:35:12.692Z,66.24
2018-03-15T13:37:44.040Z,65.56
2018-03-15T13:40:14.693Z,64.71
2018-03-15T13:42:45.240Z,64.72
2018-03-15T13:45:15.860Z,64.28
2018-03-15T13:47:46.415Z,64.99
2018-03-15T13:50:17.047Z,64.18
2018-03-15T13:52:47.773Z,64.19
2018-03-15T13:55:18.632Z,64.97
2018-03-15T13:57:50.014Z,65.00
2018-03-15T14:00:20.732Z,65.09
2018-03-15T14:02:52.121Z,65.79
2018-03-15T14:05:22.745Z,65.17
2018-03-15T14:07:54.436Z,65.08
2018-03-15T14:10:25.716Z,65.49
2018-03-15T14:12:56.314Z,66.24
2018-03-15T14:15:26.058Z,66.17
2018-03-15T14:17:56.732Z,66.41
2018-03-15T14:20:27.657Z,66.79
2018-03-15T14:22:58.088Z,67.28
2018-03-15T14:25:28.749Z,67.04
2018-03-15T14:28:00.055Z,66.75
2018-03-15T14:30:30.733Z,66.70
2018-03-15T14:33:02.090Z,66.73
2018-03-15T14:35:32.765Z,66.38
2018-03-15T14:38:04.124Z,66.26
2018-03-15T14:40:34.784Z,65.93
2018-03-15T14:43:05.800Z,66.26
2018-03-15T14:45:36.774Z,66.60
2018-03-15T14:48:07.736Z,67.11
2018-03-15T14:50:38.224Z,66.93
2018-03-15T14:53:08.880Z,66.92
2018-03-15T14:55:39.758Z,66.92
2018-03-15T14:58:11.376Z,66.88
2018-03-15T15:00:41.965Z,67.65
2018-03-15T15:03:12.789Z,68.41
2018-03-15T15:05:43.680Z,67.97
2018-03-15T15:08:15.080Z,69.14
2018-03-15T15:10:45.376Z,68.94
2018-03-15T15:13:16.013Z,68.56
2018-03-15T15:15:46.816Z,68.64
2018-03-15T15:18:18.155Z,69.02
2018-03-15T15:20:48.784Z,68.44
2018-03-15T15:23:20.497Z,69.37
2018-03-15T15:25:51.120Z,68.47
2018-03-15T15:28:21.860Z,68.88
2018-03-15T15:30:52.694Z,69.36
2018-03-15T15:33:24.119Z,69.57
2018-03-15T15:35:54.732Z,68.93
2018-03-15T15:38:26.145Z,69.18
2018-03-15T15:40:56.680Z,69.16
2018-03-15T15:43:29.027Z,69.13
2018-03-15T15:48:39.430Z,68.91
2018-03-15T15:51:08.551Z,68.97
2018-03-15T15:53:37.660Z,69.27
2018-03-15T15:56:07.154Z,69.68
2018-03-15T15:58:36.274Z,69.60
2018-03-15T16:01:05.391Z,69.71
2018-03-15T16:03:34.602Z,69.50
2018-03-15T16:06:04.320Z,69.87
2018-03-15T16:08:35.127Z,70.34
2018-03-15T16:11:04.998Z,70.63
2018-03-15T16:13:35.856Z,70.57
2018-03-15T16:16:06.648Z,70.35
2018-03-15T16:18:38.068Z,70.43
2018-03-15T16:21:08.698Z,70.72
2018-03-15T16:23:40.100Z,71.10
2018-03-15T16:26:10.705Z,71.40
2018-03-15T16:28:42.098Z,71.34
2018-03-15T16:31:12.267Z,71.01
2018-03-15T16:33:42.902Z,70.73
2018-03-15T16:36:13.820Z,70.82
2018-03-15T16:38:45.204Z,71.18
2018-03-15T16:41:15.791Z,70.70
2018-03-15T16:43:47.158Z,71.00
2018-03-15T16:46:17.344Z,70.47
2018-03-15T16:48:47.969Z,70.79
2018-03-15T16:51:18.757Z,70.85
2018-03-15T16:53:49.745Z,70.59
2018-03-15T16:56:21.002Z,70.82
2018-03-15T16:58:51.849Z,71.07
2018-03-15T17:01:23.433Z,71.34
2018-03-15T17:03:54.758Z,71.34
2018-03-15T17:06:25.266Z,71.89
2018-03-15T17:08:55.841Z,71.95
2018-03-15T17:11:26.643Z,71.91
2018-03-15T17:13:57.235Z,72.05
2018-03-15T17:16:27.879Z,72.10
2018-03-15T17:18:58.384Z,72.22
2018-03-15T17:21:28.944Z,73.03
2018-03-15T17:23:59.840Z,72.51
2018-03-15T17:26:30.813Z,72.64
2018-03-15T17:29:01.988Z,72.61
2018-03-15T17:31:32.542Z,72.52
2018-03-15T17:34:03.243Z,72.67
2018-03-15T17:36:33.985Z,72.30
2018-03-15T17:39:04.320Z,72.23
2018-03-15T17:41:36.050Z,72.46
2018-03-15T17:44:06.865Z,72.39
2018-03-15T17:46:37.707Z,72.51
2018-03-15T17:49:09.273Z,72.31
2018-03-15T17:51:39.942Z,72.79
2018-03-15T17:54:10.647Z,72.64
2018-03-15T17:56:41.191Z,73.21
2018-03-15T17:59:11.875Z,73.15
2018-03-15T18:01:42.997Z,73.33
2018-03-15T18:04:14.050Z,73.40
2018-03-15T18:06:44.877Z,73.55
2018-03-15T18:09:15.474Z,73.35
2018-03-15T18:11:46.165Z,72.70
2018-03-15T18:14:17.016Z,72.85
2018-03-15T18:16:47.741Z,73.10
2018-03-15T18:19:19.111Z,73.50
2018-03-15T18:21:50.348Z,73.01
2018-03-15T18:24:21.145Z,72.97
2018-03-15T18:26:51.656Z,73.47
2018-03-15T18:29:22.199Z,73.27
2018-03-15T18:31:52.849Z,73.06
2018-03-15T18:34:23.549Z,73.69
2018-03-15T18:36:53.596Z,73.59
2018-03-15T18:39:24.359Z,73.84
2018-03-15T18:41:55.321Z,73.92
2018-03-15T18:44:26.374Z,73.69
2018-03-15T18:46:57.045Z,73.54
2018-03-15T18:49:28.043Z,73.66
2018-03-15T18:51:59.068Z,73.73
2018-03-15T18:54:29.637Z,73.81
2018-03-15T18:57:00.341Z,74.76
2018-03-15T18:59:31.088Z,74.22
2018-03-15T19:02:01.901Z,74.31
2018-03-15T19:04:33.116Z,74.80
2018-03-15T19:07:03.480Z,74.60
2018-03-15T19:09:34.573Z,74.47
2018-03-15T19:12:05.207Z,74.20
2018-03-15T19:14:35.969Z,74.85
2018-03-15T19:17:07.191Z,74.75
2018-03-15T19:19:37.881Z,74.80
2018-03-15T19:22:08.466Z,74.90
2018-03-15T19:24:39.236Z,74.96
2018-03-15T19:27:10.200Z,74.78
2018-03-15T19:29:41.069Z,74.39
2018-03-15T19:32:12.784Z,74.77
2018-03-15T19:34:43.445Z,75.15
2018-03-15T19:37:14.221Z,74.89
2018-03-15T19:39:45.070Z,74.93
2018-03-15T19:42:15.847Z,74.79
2018-03-15T19:44:46.984Z,74.67
2018-03-15T19:47:17.850Z,74.42
2018-03-15T19:49:50.620Z,74.77
2018-03-15T19:52:21.504Z,74.19
2018-03-15T19:54:58.343Z,74.33
2018-03-15T19:57:27.589Z,73.83
2018-03-15T19:59:56.908Z,74.13
2018-03-15T20:02:26.253Z,74.05
2018-03-15T20:04:55.581Z,74.22
2018-03-15T20:07:26.153Z,77.04
2018-03-15T20:09:56.825Z,73.70
2018-03-15T20:12:27.484Z,73.45
2018-03-15T20:14:58.156Z,73.34
2018-03-15T20:17:28.935Z,73.90
2018-03-15T20:19:59.795Z,74.14
2018-03-15T20:22:36.194Z,73.88
2018-03-15T20:25:05.442Z,74.23
2018-03-15T20:27:40.350Z,74.66
2018-03-15T20:30:09.583Z,74.89
2018-03-15T20:32:44.541Z,74.63
2018-03-15T20:35:13.880Z,74.73
2018-03-15T20:37:43.188Z,74.37
2018-03-15T20:40:17.777Z,74.26
2018-03-15T20:42:47.116Z,74.59
2018-03-15T20:45:21.767Z,74.49
2018-03-15T20:47:56.523Z,74.54
2018-03-15T20:50:25.509Z,74.11
2018-03-15T20:52:54.865Z,74.18
2018-03-15T20:55:24.246Z,74.28
2018-03-15T20:57:53.548Z,73.73
2018-03-15T21:00:22.879Z,73.86
2018-03-15T21:02:52.119Z,74.00
2018-03-15T21:05:21.417Z,74.41
2018-03-15T21:07:50.695Z,74.54
2018-03-15T21:10:20.234Z,74.13
2018-03-15T21:12:49.506Z,73.98
2018-03-15T21:15:19.429Z,74.00
2018-03-15T21:17:50.216Z,74.07
2018-03-15T21:20:21.090Z,74.04
2018-03-15T21:22:53.322Z,74.12
2018-03-15T21:25:23.200Z,74.23
2018-03-15T21:27:53.903Z,74.39
2018-03-15T21:30:24.416Z,74.26
2018-03-15T21:32:55.306Z,74.54
2018-03-15T21:35:26.047Z,74.57
2018-03-15T21:37:56.846Z,74.85
2018-03-15T21:40:27.821Z,74.56
2018-03-15T21:42:58.822Z,74.91
2018-03-15T21:45:29.838Z,74.92
2018-03-15T21:48:00.759Z,75.17
2018-03-15T21:50:32.292Z,76.07
2018-03-15T21:53:03.036Z,75.57
2018-03-15T21:55:33.796Z,75.57
2018-03-15T21:58:07.727Z,75.46
2018-03-15T22:00:36.900Z,75.48
2018-03-15T22:03:06.179Z,75.35
2018-03-15T22:05:35.364Z,75.31
2018-03-15T22:08:07.167Z,75.62
2018-03-15T22:10:37.970Z,76.04
2018-03-15T22:13:08.836Z,76.42
2018-03-15T22:15:39.560Z,76.21
2018-03-15T22:18:10.288Z,76.21
2018-03-15T22:20:41.913Z,76.52
2018-03-15T22:23:12.573Z,76.52
2018-03-15T22:25:43.348Z,76.43
2018-03-15T22:28:13.133Z,76.45
2018-03-15T22:30:42.781Z,76.42
2018-03-15T22:33:14.504Z,76.19
2018-03-15T22:35:45.408Z,76.26
2018-03-15T22:38:17.206Z,76.26
2018-03-15T22:40:47.471Z,76.63
2018-03-15T22:43:19.112Z,76.56
2018-03-15T22:45:49.826Z,76.59
2018-03-15T22:48:20.910Z,76.89
2018-03-15T22:50:52.607Z,76.63
2018-03-15T22:53:22.218Z,76.62
2018-03-15T22:55:51.701Z,76.41
2018-03-15T22:58:22.092Z,76.70
2018-03-15T23:00:52.906Z,76.76
2018-03-15T23:03:24.427Z,76.87
2018-03-15T23:05:55.436Z,77.00
2018-03-15T23:08:26.368Z,76.91
2018-03-15T23:10:57.356Z,76.74
2018-03-15T23:13:28.361Z,76.80
2018-03-15T23:15:59.328Z,76.88
2018-03-15T23:18:30.260Z,77.21
2018-03-15T23:21:01.240Z,77.34
2018-03-15T23:23:32.167Z,76.86
2018-03-15T23:26:02.865Z,77.09
2018-03-15T23:28:34.352Z,76.84
2018-03-15T23:31:07.892Z,76.96
2018-03-15T23:33:38.232Z,77.02
2018-03-15T23:36:08.868Z,77.14
2018-03-15T23:38:42.240Z,77.46
2018-03-15T23:41:13.972Z,77.16
2018-03-15T23:43:44.848Z,77.60
2018-03-15T23:46:14.240Z,77.50
2018-03-15T23:48:43.521Z,77.88
2018-03-15T23:51:13.136Z,77.75
2018-03-15T23:53:42.912Z,77.98
2018-03-15T23:56:13.886Z,77.81
2018-03-15T23:58:45.842Z,77.95
